Terminal Aerodrome Forecast
Issued by NWS

Home | Current Version | Previous Version | Text Only | Print | Product List | Glossary On
Versions: 1 2 3 4 5 6 7 8 9 10 11 12 13
000
FTUS46 KSGX 202300
TAFCRQ
TAF
KCRQ 202322Z 2100/2124 VRB05KT P6SM SCT023 BKN035 OVC250
     FM210330 VRB05KT P6SM BKN025
     FM211230 VRB06KT P6SM SCT025 SCT250=

USA.gov is the U.S. government's official web portal to all federal, state and local government web resources and services.